createdAt,value
2023-01-21T00:00:44.781Z,33.75
2023-01-21T00:03:08.936Z,33.81
2023-01-21T00:05:35.312Z,33.89
2023-01-21T00:08:02.740Z,33.88
2023-01-21T00:10:28.039Z,33.83
2023-01-21T00:12:54.390Z,33.86
2023-01-21T00:15:20.792Z,33.89
2023-01-21T00:20:29.388Z,33.90
2023-01-21T00:22:55.780Z,33.95
2023-01-21T00:25:22.121Z,33.95
2023-01-21T00:27:48.511Z,33.94
2023-01-21T00:30:15.045Z,33.86
2023-01-21T00:32:41.265Z,33.94
2023-01-21T00:35:07.678Z,33.96
2023-01-21T00:37:34.072Z,33.98
2023-01-21T00:40:00.445Z,34.01
2023-01-21T00:42:26.829Z,34.05
2023-01-21T00:44:53.175Z,34.01
2023-01-21T00:47:19.623Z,34.02
2023-01-21T00:49:45.966Z,34.03
2023-01-21T00:52:12.361Z,34.08
2023-01-21T00:54:38.703Z,34.08
2023-01-21T00:57:05.099Z,34.09
2023-01-21T00:59:31.437Z,34.10
2023-01-21T01:01:57.832Z,34.12
2023-01-21T01:04:24.188Z,34.13
2023-01-21T01:06:50.600Z,34.16
2023-01-21T01:09:16.948Z,34.17
2023-01-21T01:11:43.341Z,34.20
2023-01-21T01:14:09.671Z,34.18
2023-01-21T01:16:36.078Z,34.18
2023-01-21T01:19:02.421Z,34.18
2023-01-21T01:21:28.804Z,34.21
2023-01-21T01:23:55.156Z,34.24
2023-01-21T01:26:21.550Z,34.20
2023-01-21T01:28:47.895Z,34.21
2023-01-21T01:31:14.369Z,34.29
2023-01-21T01:33:40.614Z,34.27
2023-01-21T01:36:07.002Z,34.24
2023-01-21T01:38:33.355Z,34.26
2023-01-21T01:40:59.752Z,34.24
2023-01-21T01:43:26.088Z,34.29
2023-01-21T01:45:52.469Z,34.31
2023-01-21T01:48:18.817Z,34.34
2023-01-21T01:50:45.236Z,34.39
2023-01-21T01:53:11.565Z,34.38
2023-01-21T01:55:37.944Z,34.35
2023-01-21T01:58:04.329Z,34.36
2023-01-21T02:00:30.707Z,34.40
2023-01-21T02:02:57.089Z,34.44
2023-01-21T02:05:23.444Z,34.42
2023-01-21T02:07:49.793Z,34.41
2023-01-21T02:10:16.519Z,34.44
2023-01-21T02:12:42.535Z,34.45
2023-01-21T02:15:10.129Z,34.47
2023-01-21T02:17:35.248Z,34.47
2023-01-21T02:20:01.634Z,34.46
2023-01-21T02:22:27.981Z,34.50
2023-01-21T02:24:54.373Z,34.50
2023-01-21T02:27:29.987Z,34.49
2023-01-21T02:29:47.133Z,34.56
2023-01-21T02:32:13.477Z,34.58
2023-01-21T02:34:39.870Z,34.55
2023-01-21T02:37:07.233Z,34.55
2023-01-21T02:39:32.623Z,34.59
2023-01-21T02:41:58.969Z,34.61
2023-01-21T02:44:25.440Z,34.65
2023-01-21T02:46:51.870Z,34.60
2023-01-21T02:49:18.203Z,34.61
2023-01-21T02:51:44.545Z,34.61
2023-01-21T02:54:10.940Z,34.58
2023-01-21T02:56:37.291Z,34.63
2023-01-21T02:59:03.673Z,34.63
2023-01-21T03:01:30.017Z,34.63
2023-01-21T03:03:56.404Z,34.65
2023-01-21T03:06:22.745Z,34.56
2023-01-21T03:08:49.141Z,34.60
2023-01-21T03:11:15.491Z,34.60
2023-01-21T03:13:41.863Z,34.55
2023-01-21T03:16:08.232Z,34.55
2023-01-21T03:18:34.613Z,34.55
2023-01-21T03:21:00.942Z,34.59
2023-01-21T03:23:27.328Z,34.66
2023-01-21T03:25:53.676Z,34.67
2023-01-21T03:28:20.064Z,34.69
2023-01-21T03:30:46.421Z,34.73
2023-01-21T03:33:12.810Z,34.73
2023-01-21T03:35:39.151Z,34.75
2023-01-21T03:38:05.544Z,34.75
2023-01-21T03:40:31.894Z,34.79
2023-01-21T03:42:58.290Z,34.83
2023-01-21T03:45:24.702Z,34.86
2023-01-21T03:47:51.064Z,34.87
2023-01-21T03:50:17.648Z,34.88
2023-01-21T03:52:43.805Z,34.87
2023-01-21T03:55:10.151Z,34.89
2023-01-21T03:57:36.535Z,34.90
2023-01-21T04:00:02.888Z,34.91
2023-01-21T04:02:29.326Z,34.95
2023-01-21T04:04:55.659Z,34.96
2023-01-21T04:07:22.044Z,34.95
2023-01-21T04:09:48.406Z,34.98
2023-01-21T04:12:14.794Z,34.97
2023-01-21T04:14:41.128Z,35.01
2023-01-21T04:17:07.523Z,35.05
2023-01-21T04:19:33.861Z,35.05
2023-01-21T04:22:00.292Z,35.05
2023-01-21T04:24:26.642Z,35.03
2023-01-21T04:26:53.031Z,35.07
2023-01-21T04:29:19.380Z,35.08
2023-01-21T04:31:45.851Z,35.10
2023-01-21T04:34:12.109Z,35.08
2023-01-21T04:36:39.814Z,35.10
2023-01-21T04:39:04.879Z,35.10
2023-01-21T04:41:31.255Z,35.11
2023-01-21T04:43:57.640Z,35.09
2023-01-21T04:46:23.987Z,35.11
2023-01-21T04:48:50.416Z,35.15
2023-01-21T04:51:16.788Z,35.11
2023-01-21T04:53:43.138Z,35.15
2023-01-21T04:56:09.501Z,35.16
2023-01-21T04:58:35.878Z,35.18
2023-01-21T05:01:02.270Z,35.20
2023-01-21T05:03:28.631Z,35.19
2023-01-21T05:05:54.942Z,35.19
2023-01-21T05:08:21.376Z,35.23
2023-01-21T05:10:47.701Z,35.20
2023-01-21T05:13:14.100Z,35.19
2023-01-21T05:15:40.436Z,35.23
2023-01-21T05:18:06.817Z,35.27
2023-01-21T05:20:33.165Z,35.25
2023-01-21T05:22:59.549Z,35.30
2023-01-21T05:25:25.893Z,35.33
2023-01-21T05:27:52.314Z,35.37
2023-01-21T05:30:18.816Z,35.36
2023-01-21T05:32:45.043Z,35.33
2023-01-21T05:35:11.439Z,35.34
2023-01-21T05:37:37.829Z,35.39
2023-01-21T05:40:04.257Z,35.40
2023-01-21T05:42:30.645Z,35.42
2023-01-21T05:44:56.987Z,35.47
2023-01-21T05:47:23.370Z,35.43
2023-01-21T05:49:49.746Z,35.40
2023-01-21T05:52:16.167Z,35.41
2023-01-21T05:54:59.930Z,35.45
2023-01-21T05:57:08.939Z,35.46
2023-01-21T05:59:35.278Z,35.47
2023-01-21T06:02:01.710Z,35.46
2023-01-21T06:04:28.013Z,35.55
2023-01-21T06:06:54.393Z,35.62
2023-01-21T06:09:20.735Z,35.54
2023-01-21T06:11:47.118Z,35.46
2023-01-21T06:14:13.469Z,35.32
2023-01-21T06:16:39.852Z,35.23
2023-01-21T06:19:06.201Z,35.15
2023-01-21T06:21:32.584Z,35.08
2023-01-21T06:23:58.924Z,34.96
2023-01-21T06:26:27.116Z,34.96
2023-01-21T06:28:51.683Z,34.87
2023-01-21T06:31:18.135Z,34.80
2023-01-21T06:33:44.433Z,34.70
2023-01-21T06:36:10.811Z,34.63
2023-01-21T06:38:37.154Z,34.48
2023-01-21T06:41:03.555Z,34.38
2023-01-21T06:43:29.916Z,34.38
2023-01-21T06:45:56.323Z,34.26
2023-01-21T06:48:22.647Z,34.22
2023-01-21T06:50:49.074Z,34.13
2023-01-21T06:53:15.396Z,34.07
2023-01-21T06:55:41.775Z,34.00
2023-01-21T06:58:08.125Z,33.96
2023-01-21T07:00:34.515Z,33.84
2023-01-21T07:03:00.924Z,33.92
2023-01-21T07:05:27.277Z,33.88
2023-01-21T07:07:53.620Z,33.78
2023-01-21T07:10:20.000Z,33.81
2023-01-21T07:12:46.345Z,33.69
2023-01-21T07:15:12.730Z,33.68
2023-01-21T07:17:39.065Z,33.58
2023-01-21T07:20:05.453Z,33.54
2023-01-21T07:22:31.801Z,33.55
2023-01-21T07:24:58.186Z,33.48
2023-01-21T07:27:24.522Z,33.44
2023-01-21T07:29:50.964Z,33.39
2023-01-21T07:32:17.313Z,33.35
2023-01-21T07:34:43.702Z,33.28
2023-01-21T07:37:10.032Z,33.21
2023-01-21T07:39:36.426Z,33.13
2023-01-21T07:42:02.772Z,33.13
2023-01-21T07:44:29.156Z,33.11
2023-01-21T07:46:55.498Z,33.05
2023-01-21T07:49:21.924Z,32.98
2023-01-21T07:51:48.272Z,32.94
2023-01-21T07:54:14.692Z,32.93
2023-01-21T07:56:41.013Z,32.81
2023-01-21T07:59:07.400Z,32.75
2023-01-21T08:01:33.760Z,32.73
2023-01-21T08:04:00.145Z,32.69
2023-01-21T08:06:26.509Z,32.62
2023-01-21T08:08:52.891Z,32.63
2023-01-21T08:11:19.264Z,32.51
2023-01-21T08:13:45.657Z,32.51
2023-01-21T08:16:12.058Z,32.39
2023-01-21T08:18:38.399Z,32.35
2023-01-21T08:21:04.770Z,32.30
2023-01-21T08:23:31.148Z,32.31
2023-01-21T08:25:57.496Z,32.25
2023-01-21T08:28:23.875Z,32.23
2023-01-21T08:30:50.238Z,32.17
2023-01-21T08:33:17.865Z,32.15
2023-01-21T08:35:42.981Z,32.17
2023-01-21T08:38:10.799Z,32.03
2023-01-21T08:40:35.703Z,32.01
2023-01-21T08:43:02.090Z,31.97
2023-01-21T08:45:29.671Z,31.97
2023-01-21T08:47:54.824Z,31.89
2023-01-21T08:50:21.162Z,31.91
2023-01-21T08:52:47.553Z,31.87
2023-01-21T08:55:13.925Z,31.81
2023-01-21T08:57:40.280Z,31.81
2023-01-21T09:00:06.641Z,31.81
2023-01-21T09:02:33.020Z,31.69
2023-01-21T09:04:59.355Z,31.71
2023-01-21T09:07:25.783Z,31.67
2023-01-21T09:09:52.120Z,31.65
2023-01-21T09:12:18.508Z,31.63
2023-01-21T09:14:44.843Z,31.53
2023-01-21T09:17:11.241Z,31.49
2023-01-21T09:19:38.822Z,31.54
2023-01-21T09:22:04.202Z,31.47
2023-01-21T09:24:32.721Z,31.43
2023-01-21T09:26:59.096Z,31.42
2023-01-21T09:29:25.442Z,31.38
2023-01-21T09:31:51.985Z,31.31
2023-01-21T09:34:18.204Z,31.34
2023-01-21T09:36:44.577Z,31.33
2023-01-21T09:39:10.915Z,31.29
2023-01-21T09:41:37.352Z,31.21
2023-01-21T09:44:03.680Z,31.21
2023-01-21T09:46:30.052Z,31.14
2023-01-21T09:48:56.418Z,31.10
2023-01-21T09:51:22.803Z,31.08
2023-01-21T09:53:49.159Z,30.96
2023-01-21T09:56:15.531Z,30.99
2023-01-21T09:58:41.875Z,30.92
2023-01-21T10:01:08.343Z,30.89
2023-01-21T10:03:34.619Z,30.83
2023-01-21T10:06:01.023Z,30.82
2023-01-21T10:08:27.339Z,30.81
2023-01-21T10:10:55.141Z,30.79
2023-01-21T10:13:20.062Z,30.76
2023-01-21T10:15:46.454Z,30.76
2023-01-21T10:18:12.808Z,30.73
2023-01-21T10:20:39.196Z,30.73
2023-01-21T10:23:06.732Z,30.66
2023-01-21T10:25:31.925Z,30.73
2023-01-21T10:27:58.254Z,30.67
2023-01-21T10:30:24.654Z,30.70
2023-01-21T10:32:51.019Z,30.59
2023-01-21T10:35:17.750Z,30.73
2023-01-21T10:37:43.755Z,30.65
2023-01-21T10:40:10.138Z,30.68
2023-01-21T10:42:37.751Z,30.64
2023-01-21T10:45:02.901Z,30.63
2023-01-21T10:50:14.556Z,30.61
2023-01-21T10:52:40.908Z,30.57
2023-01-21T10:55:07.286Z,30.51
2023-01-21T10:57:33.630Z,30.43
2023-01-21T11:00:00.030Z,30.38
2023-01-21T11:02:26.397Z,30.33
2023-01-21T11:04:52.743Z,30.29
2023-01-21T11:07:19.099Z,30.23
2023-01-21T11:09:45.471Z,30.15
2023-01-21T11:12:11.807Z,30.10
2023-01-21T11:14:38.203Z,30.08
2023-01-21T11:17:04.535Z,30.03
2023-01-21T11:19:30.952Z,29.92
2023-01-21T11:21:57.298Z,29.82
2023-01-21T11:24:23.709Z,29.63
2023-01-21T11:26:50.052Z,29.53
2023-01-21T11:29:16.452Z,29.62
2023-01-21T11:31:42.963Z,29.53
2023-01-21T11:34:09.197Z,29.53
2023-01-21T11:36:35.574Z,29.47
2023-01-21T11:39:01.973Z,29.54
2023-01-21T11:41:28.298Z,29.51
2023-01-21T11:43:54.708Z,29.40
2023-01-21T11:46:21.103Z,29.35
2023-01-21T11:48:47.426Z,29.20
2023-01-21T11:51:13.835Z,29.21
2023-01-21T11:53:40.148Z,29.27
2023-01-21T11:56:06.488Z,29.11
2023-01-21T11:58:32.888Z,29.07
2023-01-21T12:00:59.222Z,29.07
2023-01-21T12:03:25.636Z,29.04
2023-01-21T12:05:51.963Z,29.06
2023-01-21T12:08:18.386Z,29.03
2023-01-21T12:10:44.714Z,29.07
2023-01-21T12:13:11.092Z,29.09
2023-01-21T12:15:37.469Z,29.12
2023-01-21T12:18:03.827Z,29.11
2023-01-21T12:20:30.177Z,29.11
2023-01-21T12:22:56.560Z,29.07
2023-01-21T12:25:22.904Z,29.10
2023-01-21T12:27:49.287Z,29.07
2023-01-21T12:30:15.900Z,28.99
2023-01-21T12:32:42.078Z,28.91
2023-01-21T12:35:08.394Z,28.90
2023-01-21T12:37:34.790Z,28.84
2023-01-21T12:40:01.162Z,28.78
2023-01-21T12:42:27.512Z,28.85
2023-01-21T12:44:53.863Z,28.83
2023-01-21T12:47:20.242Z,28.83
2023-01-21T12:49:46.595Z,28.85
2023-01-21T12:52:12.996Z,28.79
2023-01-21T12:54:39.335Z,28.85
2023-01-21T12:57:05.723Z,28.93
2023-01-21T12:59:32.063Z,28.89
2023-01-21T13:01:58.527Z,28.91
2023-01-21T13:04:24.819Z,28.90
2023-01-21T13:06:54.103Z,28.96
2023-01-21T13:09:17.541Z,28.97
2023-01-21T13:11:43.939Z,28.88
2023-01-21T13:14:10.297Z,28.77
2023-01-21T13:16:36.766Z,28.80
2023-01-21T13:19:03.042Z,28.76
2023-01-21T13:21:29.416Z,28.75
2023-01-21T13:23:55.787Z,28.75
2023-01-21T13:26:22.150Z,28.81
2023-01-21T13:28:48.495Z,28.84
2023-01-21T13:31:15.005Z,28.83
2023-01-21T13:33:41.258Z,28.81
2023-01-21T13:36:07.651Z,28.87
2023-01-21T13:38:34.003Z,28.77
2023-01-21T13:41:00.398Z,28.72
2023-01-21T13:43:26.731Z,28.75
2023-01-21T13:45:53.183Z,28.68
2023-01-21T13:48:19.483Z,28.75
2023-01-21T13:50:45.952Z,28.64
2023-01-21T13:53:12.492Z,28.68
2023-01-21T13:55:38.836Z,28.61
2023-01-21T13:58:05.187Z,28.71
2023-01-21T14:00:31.694Z,28.78
2023-01-21T14:02:58.039Z,28.78
2023-01-21T14:05:24.450Z,28.87
2023-01-21T14:07:50.796Z,28.92
2023-01-21T14:10:17.424Z,28.84
2023-01-21T14:12:43.524Z,28.88
2023-01-21T14:15:09.921Z,28.92
2023-01-21T14:17:36.265Z,28.89
2023-01-21T14:20:02.645Z,28.98
2023-01-21T14:22:28.996Z,28.90
2023-01-21T14:24:55.375Z,28.97
2023-01-21T14:27:21.821Z,28.97
2023-01-21T14:29:48.295Z,28.89
2023-01-21T14:32:14.529Z,28.95
2023-01-21T14:34:40.933Z,28.97
2023-01-21T14:37:07.264Z,28.99
2023-01-21T14:39:33.712Z,29.03
2023-01-21T14:42:00.064Z,29.13
2023-01-21T14:44:26.411Z,29.16
2023-01-21T14:46:52.757Z,29.17
2023-01-21T14:49:19.138Z,29.10
2023-01-21T14:51:45.486Z,29.20
2023-01-21T14:54:11.914Z,29.25
2023-01-21T14:56:38.282Z,29.19
2023-01-21T14:59:04.668Z,29.20
2023-01-21T15:01:31.119Z,29.22
2023-01-21T15:03:57.425Z,29.26
2023-01-21T15:06:23.868Z,29.30
2023-01-21T15:08:50.207Z,29.32
2023-01-21T15:11:16.614Z,29.38
2023-01-21T15:13:43.010Z,29.44
2023-01-21T15:16:09.414Z,29.46
2023-01-21T15:18:35.743Z,29.45
2023-01-21T15:21:02.130Z,29.48
2023-01-21T15:23:28.474Z,29.49
2023-01-21T15:25:55.906Z,29.53
2023-01-21T15:28:22.243Z,29.59
2023-01-21T15:30:58.365Z,29.64
2023-01-21T15:33:14.984Z,29.63
2023-01-21T15:35:41.375Z,29.66
2023-01-21T15:38:07.705Z,29.72
2023-01-21T15:40:34.088Z,29.78
2023-01-21T15:43:00.435Z,29.81
2023-01-21T15:45:26.827Z,29.85
2023-01-21T15:47:53.162Z,29.81
2023-01-21T15:50:19.559Z,29.81
2023-01-21T15:52:45.902Z,29.83
2023-01-21T15:55:12.285Z,29.84
2023-01-21T15:57:38.740Z,29.93
2023-01-21T16:00:05.137Z,29.97
2023-01-21T16:02:31.529Z,29.90
2023-01-21T16:04:58.829Z,29.88
2023-01-21T16:07:24.220Z,29.89
2023-01-21T16:09:50.604Z,29.93
2023-01-21T16:12:16.989Z,29.96
2023-01-21T16:14:43.370Z,29.93
2023-01-21T16:19:55.035Z,30.06
2023-01-21T16:22:21.364Z,30.15
2023-01-21T16:24:47.749Z,30.21
2023-01-21T16:27:14.119Z,30.23
2023-01-21T16:29:40.503Z,30.24
2023-01-21T16:32:06.899Z,30.34
2023-01-21T16:34:35.316Z,30.36
2023-01-21T16:36:59.590Z,30.41
2023-01-21T16:39:25.996Z,30.53
2023-01-21T16:41:52.352Z,30.53
2023-01-21T16:44:18.736Z,30.53
2023-01-21T16:46:45.086Z,30.60
2023-01-21T16:49:11.472Z,30.66
2023-01-21T16:51:37.886Z,30.66
2023-01-21T16:54:04.269Z,30.72
2023-01-21T16:56:30.613Z,30.72
2023-01-21T16:58:56.994Z,30.77
2023-01-21T17:01:23.383Z,30.72
2023-01-21T17:03:49.766Z,30.77
2023-01-21T17:06:16.087Z,30.77
2023-01-21T17:08:42.489Z,30.70
2023-01-21T17:11:08.838Z,30.84
2023-01-21T17:13:35.222Z,30.84
2023-01-21T17:16:01.645Z,30.75
2023-01-21T17:18:27.956Z,30.78
2023-01-21T17:20:54.319Z,30.85
2023-01-21T17:23:20.713Z,30.88
2023-01-21T17:25:49.453Z,30.86
2023-01-21T17:28:15.834Z,30.94
2023-01-21T17:30:42.287Z,30.98
2023-01-21T17:33:08.567Z,31.04
2023-01-21T17:35:34.912Z,31.10
2023-01-21T17:38:01.295Z,31.12
2023-01-21T17:40:27.670Z,31.17
2023-01-21T17:42:54.028Z,31.19
2023-01-21T17:45:20.372Z,31.11
2023-01-21T17:48:07.261Z,31.19
2023-01-21T17:50:13.138Z,31.41
2023-01-21T17:52:39.532Z,31.40
2023-01-21T17:55:05.899Z,31.37
2023-01-21T17:57:32.308Z,31.44
2023-01-21T17:59:58.653Z,31.44
2023-01-21T18:02:25.104Z,31.58
2023-01-21T18:04:51.446Z,31.63
2023-01-21T18:07:17.835Z,31.61
2023-01-21T18:09:44.349Z,31.63
2023-01-21T18:12:10.703Z,31.70
2023-01-21T18:14:37.074Z,31.64
2023-01-21T18:17:03.454Z,31.68
2023-01-21T18:19:29.805Z,31.68
2023-01-21T18:21:56.188Z,31.74
2023-01-21T18:24:22.666Z,31.76
2023-01-21T18:26:48.988Z,31.84
2023-01-21T18:29:15.327Z,31.87
2023-01-21T18:31:41.837Z,31.87
2023-01-21T18:34:08.063Z,31.91
2023-01-21T18:36:34.461Z,31.95
2023-01-21T18:39:00.811Z,32.00
2023-01-21T18:41:27.194Z,32.03
2023-01-21T18:43:53.536Z,32.08
2023-01-21T18:46:20.018Z,32.12
2023-01-21T18:48:46.273Z,32.16
2023-01-21T18:51:12.730Z,32.31
2023-01-21T18:53:39.002Z,32.32
2023-01-21T18:56:05.422Z,32.32
2023-01-21T18:58:31.765Z,32.34
2023-01-21T19:00:58.161Z,32.33
2023-01-21T19:03:24.501Z,32.30
2023-01-21T19:05:50.900Z,32.33
2023-01-21T19:08:17.266Z,32.41
2023-01-21T19:10:43.660Z,32.34
2023-01-21T19:13:10.012Z,32.35
2023-01-21T19:15:36.389Z,32.33
2023-01-21T19:18:02.736Z,32.43
2023-01-21T19:20:29.141Z,32.44
2023-01-21T19:22:55.485Z,32.42
2023-01-21T19:25:21.894Z,32.42
2023-01-21T19:27:48.237Z,32.59
2023-01-21T19:30:14.803Z,32.66
2023-01-21T19:32:41.025Z,32.56
2023-01-21T19:35:07.397Z,32.56
2023-01-21T19:37:33.743Z,32.55
2023-01-21T19:40:00.137Z,32.55
2023-01-21T19:42:26.489Z,32.55
2023-01-21T19:44:52.903Z,32.56
2023-01-21T19:47:19.318Z,32.56
2023-01-21T19:49:45.708Z,32.54
2023-01-21T19:52:12.072Z,32.57
2023-01-21T19:54:38.461Z,32.61
2023-01-21T19:57:04.800Z,32.62
2023-01-21T19:59:31.184Z,32.70
2023-01-21T20:01:57.543Z,32.67
2023-01-21T20:04:23.933Z,32.64
2023-01-21T20:06:50.263Z,32.69
2023-01-21T20:09:16.645Z,32.74
2023-01-21T20:11:43.011Z,32.71
2023-01-21T20:14:09.396Z,32.77
2023-01-21T20:16:35.755Z,32.80
2023-01-21T20:19:02.166Z,32.81
2023-01-21T20:21:28.462Z,32.85
2023-01-21T20:23:54.882Z,32.86
2023-01-21T20:26:21.225Z,32.90
2023-01-21T20:28:47.727Z,32.88
2023-01-21T20:31:14.122Z,32.93
2023-01-21T20:33:41.927Z,32.95
2023-01-21T20:36:06.798Z,33.00
2023-01-21T20:38:33.153Z,32.99
2023-01-21T20:40:59.530Z,33.00
2023-01-21T20:43:25.918Z,33.03
2023-01-21T20:45:52.299Z,33.01
2023-01-21T20:48:18.655Z,33.07
2023-01-21T20:50:45.132Z,33.06
2023-01-21T20:53:11.420Z,33.12
2023-01-21T20:55:37.789Z,33.09
2023-01-21T20:58:04.185Z,33.14
2023-01-21T21:00:31.747Z,33.13
2023-01-21T21:02:56.980Z,33.18
2023-01-21T21:05:23.937Z,33.22
2023-01-21T21:07:49.673Z,33.19
2023-01-21T21:10:16.225Z,33.25
2023-01-21T21:12:42.421Z,33.24
2023-01-21T21:15:08.788Z,33.27
2023-01-21T21:17:35.185Z,33.33
2023-01-21T21:20:01.523Z,33.37
2023-01-21T21:22:27.905Z,33.34
2023-01-21T21:24:54.241Z,33.34
2023-01-21T21:27:20.630Z,33.36
2023-01-21T21:29:46.965Z,33.38
2023-01-21T21:32:13.439Z,33.39
2023-01-21T21:34:39.711Z,33.40
2023-01-21T21:37:06.092Z,33.41
2023-01-21T21:39:32.471Z,33.43
2023-01-21T21:41:58.849Z,33.45
2023-01-21T21:44:25.202Z,33.47
2023-01-21T21:46:51.585Z,33.47
2023-01-21T21:49:17.935Z,33.50
2023-01-21T21:51:45.798Z,33.47
2023-01-21T21:54:10.708Z,33.54
2023-01-21T21:56:37.081Z,33.55
2023-01-21T21:59:03.433Z,33.58
2023-01-21T22:01:30.614Z,33.58
2023-01-21T22:03:56.153Z,33.56
2023-01-21T22:06:22.540Z,33.59
2023-01-21T22:08:48.871Z,33.60
2023-01-21T22:11:15.271Z,33.59
2023-01-21T22:13:42.606Z,33.64
2023-01-21T22:16:07.996Z,33.69
2023-01-21T22:18:34.349Z,33.68
2023-01-21T22:21:00.719Z,33.74
2023-01-21T22:23:27.057Z,33.71
2023-01-21T22:25:53.444Z,33.73
2023-01-21T22:28:19.788Z,33.75
2023-01-21T22:30:46.296Z,33.78
2023-01-21T22:33:12.525Z,33.78
2023-01-21T22:35:38.904Z,33.80
2023-01-21T22:38:05.244Z,33.84
2023-01-21T22:40:31.649Z,33.86
2023-01-21T22:42:57.984Z,33.86
2023-01-21T22:45:24.627Z,33.85
2023-01-21T22:47:50.724Z,33.90
2023-01-21T22:50:17.112Z,33.94
2023-01-21T22:52:43.456Z,33.95
2023-01-21T22:55:09.848Z,34.03
2023-01-21T22:57:36.189Z,34.01
2023-01-21T23:00:02.770Z,34.03
2023-01-21T23:02:28.905Z,34.05
2023-01-21T23:04:55.339Z,34.04
2023-01-21T23:07:21.637Z,34.08
2023-01-21T23:09:48.029Z,34.12
2023-01-21T23:12:14.365Z,34.10
2023-01-21T23:14:40.750Z,34.14
2023-01-21T23:17:07.098Z,34.18
2023-01-21T23:19:33.514Z,34.18
2023-01-21T23:21:59.859Z,34.23
2023-01-21T23:24:26.265Z,34.24
2023-01-21T23:26:52.585Z,34.27
2023-01-21T23:29:19.031Z,34.29
2023-01-21T23:31:45.479Z,34.29
2023-01-21T23:34:11.763Z,34.31
2023-01-21T23:36:38.129Z,34.31
2023-01-21T23:39:04.520Z,34.33
2023-01-21T23:41:30.858Z,34.33
2023-01-21T23:43:57.236Z,34.32
2023-01-21T23:46:23.633Z,34.37
2023-01-21T23:48:49.999Z,34.31
2023-01-21T23:51:16.475Z,34.40
2023-01-21T23:53:42.778Z,34.41
2023-01-21T23:56:09.107Z,34.37
2023-01-21T23:58:35.485Z,34.40
